createdAt,value
2019-03-16T00:00:10.303Z,65.90
2019-03-16T00:02:40.143Z,66.00
2019-03-16T00:05:10.229Z,66.60
2019-03-16T00:07:38.746Z,65.80
2019-03-16T00:10:08.273Z,65.80
2019-03-16T00:12:36.715Z,65.50
2019-03-16T00:15:07.280Z,65.30
2019-03-16T00:17:35.751Z,65.20
2019-03-16T00:20:13.102Z,64.80
2019-03-16T00:22:43.090Z,64.60
2019-03-16T00:25:11.751Z,64.20
2019-03-16T00:27:40.512Z,64.40
2019-03-16T00:30:16.167Z,64.50
2019-03-16T00:32:46.192Z,64.10
2019-03-16T00:35:16.043Z,63.80
2019-03-16T00:37:44.560Z,63.60
2019-03-16T00:40:14.340Z,63.70
2019-03-16T00:42:43.003Z,63.40
2019-03-16T00:45:12.602Z,63.20
2019-03-16T00:47:41.168Z,63.10
2019-03-16T00:50:11.362Z,62.90
2019-03-16T00:52:40.021Z,62.60
2019-03-16T00:55:12.112Z,62.90
2019-03-16T00:57:40.658Z,62.50
2019-03-16T01:00:17.519Z,62.60
2019-03-16T01:02:47.654Z,62.40
2019-03-16T01:05:16.511Z,62.30
2019-03-16T01:07:45.753Z,62.30
2019-03-16T01:10:14.364Z,62.60
2019-03-16T01:12:43.938Z,62.60
2019-03-16T01:15:15.238Z,62.90
2019-03-16T01:17:43.802Z,62.90
2019-03-16T01:20:14.929Z,63.00
2019-03-16T01:22:43.367Z,63.90
2019-03-16T01:25:14.230Z,63.20
2019-03-16T01:27:42.721Z,63.40
2019-03-16T01:30:27.106Z,63.50
2019-03-16T01:32:57.911Z,63.70
2019-03-16T01:35:26.457Z,63.80
2019-03-16T01:37:54.968Z,64.00
2019-03-16T01:40:23.455Z,64.20
2019-03-16T01:42:51.965Z,64.40
2019-03-16T01:45:20.493Z,64.60
2019-03-16T01:47:52.078Z,64.80
2019-03-16T01:50:22.694Z,65.00
2019-03-16T01:52:51.197Z,65.20
2019-03-16T01:55:21.246Z,65.40
2019-03-16T01:57:49.691Z,66.50
2019-03-16T02:00:18.281Z,65.70
2019-03-16T02:02:54.798Z,66.00
2019-03-16T02:05:17.259Z,66.10
2019-03-16T02:07:47.464Z,66.30
2019-03-16T02:10:16.080Z,66.50
2019-03-16T02:12:49.941Z,66.60
2019-03-16T02:15:20.467Z,66.80
2019-03-16T02:17:52.151Z,67.00
2019-03-16T02:20:25.724Z,67.20
2019-03-16T02:22:54.916Z,67.30
2019-03-16T02:25:23.406Z,67.30
2019-03-16T02:27:51.875Z,67.40
2019-03-16T02:30:20.342Z,67.50
2019-03-16T02:32:49.017Z,67.50
2019-03-16T02:35:17.522Z,67.50
2019-03-16T02:37:47.616Z,67.50
2019-03-16T02:40:18.623Z,67.60
2019-03-16T02:42:48.028Z,67.70
2019-03-16T02:45:16.530Z,67.80
2019-03-16T02:47:45.993Z,68.00
2019-03-16T02:50:15.541Z,68.10
2019-03-16T02:52:44.114Z,68.20
2019-03-16T02:55:14.471Z,68.30
2019-03-16T02:57:45.347Z,68.40
2019-03-16T03:00:18.483Z,68.50
2019-03-16T03:02:46.954Z,68.50
2019-03-16T03:05:15.419Z,68.50
2019-03-16T03:07:44.107Z,68.70
2019-03-16T03:10:17.418Z,68.80
2019-03-16T03:12:45.934Z,68.90
2019-03-16T03:15:23.750Z,69.00
2019-03-16T03:17:54.607Z,69.20
2019-03-16T03:20:23.121Z,69.40
2019-03-16T03:22:51.578Z,69.60
2019-03-16T03:25:20.724Z,69.90
2019-03-16T03:27:49.258Z,70.10
2019-03-16T03:30:17.784Z,70.20
2019-03-16T03:32:47.908Z,70.30
2019-03-16T03:35:17.100Z,70.50
2019-03-16T03:37:48.348Z,70.70
2019-03-16T03:40:18.363Z,70.80
2019-03-16T03:42:46.865Z,70.80
2019-03-16T03:45:15.417Z,71.00
2019-03-16T03:47:44.184Z,71.20
2019-03-16T03:50:15.682Z,71.30
2019-03-16T03:52:44.147Z,71.60
2019-03-16T03:55:13.955Z,71.70
2019-03-16T03:57:43.755Z,71.80
2019-03-16T04:00:17.428Z,72.00
2019-03-16T04:02:49.499Z,71.90
2019-03-16T04:05:18.139Z,72.10
2019-03-16T04:07:46.792Z,71.90
2019-03-16T04:10:15.422Z,71.90
2019-03-16T04:12:43.998Z,72.00
2019-03-16T04:15:13.903Z,72.30
2019-03-16T04:17:42.397Z,73.40
2019-03-16T04:20:13.124Z,73.10
2019-03-16T04:22:42.402Z,73.40
2019-03-16T04:25:11.008Z,73.70
2019-03-16T04:27:43.568Z,74.00
2019-03-16T04:30:14.614Z,74.40
2019-03-16T04:32:44.704Z,74.40
2019-03-16T04:35:15.489Z,74.70
2019-03-16T04:37:43.975Z,74.90
2019-03-16T04:40:12.579Z,75.20
2019-03-16T04:42:41.138Z,75.40
2019-03-16T04:45:13.683Z,75.50
2019-03-16T04:47:42.280Z,75.70
2019-03-16T04:50:12.389Z,75.80
2019-03-16T04:52:40.957Z,76.80
2019-03-16T04:55:10.177Z,76.30
2019-03-16T04:57:38.627Z,76.50
2019-03-16T05:00:12.028Z,76.70
2019-03-16T05:02:40.483Z,76.90
2019-03-16T05:05:08.967Z,77.20
2019-03-16T05:07:37.454Z,77.30
2019-03-16T05:10:13.860Z,77.40
2019-03-16T05:12:42.324Z,77.70
2019-03-16T05:15:11.023Z,77.80
2019-03-16T05:17:41.902Z,78.00
2019-03-16T05:20:12.036Z,78.20
2019-03-16T05:22:41.581Z,78.30
2019-03-16T05:25:11.482Z,78.50
2019-03-16T05:27:42.101Z,78.80
2019-03-16T05:30:14.727Z,79.10
2019-03-16T05:32:43.251Z,79.10
2019-03-16T05:35:12.146Z,79.40
2019-03-16T05:37:40.966Z,79.60
2019-03-16T05:40:11.038Z,79.90
2019-03-16T05:42:39.581Z,80.10
2019-03-16T05:45:10.851Z,80.30
2019-03-16T05:47:39.311Z,80.70
2019-03-16T05:50:10.593Z,80.70
2019-03-16T05:52:39.166Z,80.90
2019-03-16T05:55:07.808Z,81.20
2019-03-16T05:57:36.259Z,81.40
2019-03-16T06:00:11.221Z,81.50
2019-03-16T06:02:41.389Z,81.70
2019-03-16T06:05:11.355Z,81.80
2019-03-16T06:07:40.305Z,82.00
2019-03-16T06:10:10.238Z,82.20
2019-03-16T06:12:40.081Z,82.30
2019-03-16T06:15:14.195Z,82.50
2019-03-16T06:17:45.492Z,82.70
2019-03-16T06:20:15.115Z,82.80
2019-03-16T06:22:43.603Z,82.90
2019-03-16T06:25:13.634Z,84.00
2019-03-16T06:27:42.219Z,83.20
2019-03-16T06:30:15.744Z,83.30
2019-03-16T06:32:45.048Z,83.40
2019-03-16T06:35:24.002Z,83.50
2019-03-16T06:37:44.218Z,83.50
2019-03-16T06:40:13.006Z,83.50
2019-03-16T06:42:44.174Z,83.50
2019-03-16T06:45:14.337Z,83.60
2019-03-16T06:47:43.995Z,83.70
2019-03-16T06:50:15.067Z,83.80
2019-03-16T06:52:43.572Z,83.90
2019-03-16T06:55:14.040Z,84.10
2019-03-16T06:57:43.254Z,84.20
2019-03-16T07:00:15.605Z,84.30
2019-03-16T07:02:44.121Z,84.40
2019-03-16T07:05:14.234Z,84.50
2019-03-16T07:07:42.934Z,84.60
2019-03-16T07:10:15.938Z,84.70
2019-03-16T07:12:45.947Z,84.70
2019-03-16T07:15:17.963Z,85.80
2019-03-16T07:17:46.428Z,85.00
2019-03-16T07:20:15.814Z,85.20
2019-03-16T07:22:44.364Z,85.30
2019-03-16T07:25:12.912Z,85.70
2019-03-16T07:27:41.364Z,85.80
2019-03-16T07:30:12.477Z,86.90
2019-03-16T07:32:41.069Z,87.40
2019-03-16T07:35:12.580Z,88.60
2019-03-16T07:37:45.220Z,88.90
2019-03-16T07:40:15.265Z,88.90
2019-03-16T07:42:43.734Z,89.00
2019-03-16T07:45:17.326Z,89.10
2019-03-16T07:47:48.861Z,88.80
2019-03-16T07:50:20.361Z,88.50
2019-03-16T07:52:59.278Z,88.40
2019-03-16T07:55:31.079Z,88.70
2019-03-16T07:57:59.544Z,88.70
2019-03-16T08:00:29.606Z,88.60
2019-03-16T08:02:58.074Z,88.50
2019-03-16T08:05:26.647Z,88.50
2019-03-16T08:07:55.105Z,88.30
2019-03-16T08:10:25.260Z,88.10
2019-03-16T08:12:53.831Z,88.30
2019-03-16T08:15:22.355Z,88.20
2019-03-16T08:17:50.994Z,88.20
2019-03-16T08:20:19.559Z,88.30
2019-03-16T08:22:48.055Z,88.10
2019-03-16T08:25:17.907Z,88.10
2019-03-16T08:27:53.946Z,88.10
2019-03-16T08:30:18.322Z,88.10
2019-03-16T08:32:46.784Z,88.10
2019-03-16T08:35:17.860Z,88.10
2019-03-16T08:37:46.684Z,88.30
2019-03-16T08:40:15.675Z,88.50
2019-03-16T08:42:46.239Z,88.60
2019-03-16T08:45:18.708Z,88.50
2019-03-16T08:47:48.979Z,88.50
2019-03-16T08:50:19.051Z,88.40
2019-03-16T08:52:53.756Z,88.40
2019-03-16T08:55:24.458Z,88.20
2019-03-16T08:58:05.308Z,88.40
2019-03-16T09:00:26.598Z,88.20
2019-03-16T09:02:56.984Z,88.20
2019-03-16T09:05:27.607Z,88.10
2019-03-16T09:07:56.407Z,88.10
2019-03-16T09:10:28.307Z,87.90
2019-03-16T09:12:58.689Z,87.60
2019-03-16T09:15:32.609Z,87.60
2019-03-16T09:18:04.625Z,87.30
2019-03-16T09:20:38.646Z,87.20
2019-03-16T09:23:08.276Z,86.90
2019-03-16T09:25:41.850Z,86.50
2019-03-16T09:28:18.940Z,86.10
2019-03-16T09:30:49.486Z,86.00
2019-03-16T09:33:18.673Z,85.50
2019-03-16T09:35:47.400Z,85.70
2019-03-16T09:38:17.458Z,85.60
2019-03-16T09:40:45.921Z,85.70
2019-03-16T09:43:15.805Z,85.10
2019-03-16T09:45:46.305Z,85.00
2019-03-16T09:48:17.060Z,84.70
2019-03-16T09:50:45.619Z,84.50
2019-03-16T09:53:17.261Z,84.60
2019-03-16T09:55:46.091Z,84.50
2019-03-16T09:58:14.595Z,84.40
2019-03-16T10:00:43.119Z,84.40
2019-03-16T10:03:12.245Z,84.40
2019-03-16T10:05:40.837Z,84.10
2019-03-16T10:08:09.396Z,83.80
2019-03-16T10:10:38.824Z,84.00
2019-03-16T10:13:07.284Z,83.60
2019-03-16T10:15:37.116Z,83.90
2019-03-16T10:18:08.847Z,84.00
2019-03-16T10:20:37.299Z,84.30
2019-03-16T10:23:06.236Z,83.90
2019-03-16T10:25:35.296Z,83.50
2019-03-16T10:28:03.741Z,83.40
2019-03-16T10:30:32.216Z,83.90
2019-03-16T10:33:00.755Z,83.50
2019-03-16T10:35:31.214Z,82.80
2019-03-16T10:38:01.016Z,82.60
2019-03-16T10:40:29.495Z,81.40
2019-03-16T10:42:57.951Z,80.60
2019-03-16T10:45:29.211Z,81.00
2019-03-16T10:48:00.447Z,80.20
2019-03-16T10:50:28.972Z,80.10
2019-03-16T10:53:01.566Z,79.90
2019-03-16T10:55:33.531Z,80.00
2019-03-16T10:58:02.131Z,80.00
2019-03-16T11:00:30.652Z,79.90
2019-03-16T11:03:02.998Z,80.60
2019-03-16T11:05:32.980Z,79.60
2019-03-16T11:08:03.738Z,79.50
2019-03-16T11:10:32.231Z,79.40
2019-03-16T11:13:02.080Z,79.60
2019-03-16T11:15:31.176Z,80.30
2019-03-16T11:17:59.797Z,79.10
2019-03-16T11:20:28.323Z,78.90
2019-03-16T11:22:56.811Z,78.60
2019-03-16T11:25:25.490Z,77.80
2019-03-16T11:27:54.005Z,78.50
2019-03-16T11:30:29.813Z,77.50
2019-03-16T11:33:00.423Z,76.30
2019-03-16T11:35:30.423Z,75.50
2019-03-16T11:37:59.109Z,75.20
2019-03-16T11:40:33.532Z,74.50
2019-03-16T11:43:01.985Z,73.90
2019-03-16T11:45:30.602Z,73.90
2019-03-16T11:48:00.654Z,73.40
2019-03-16T11:50:30.704Z,72.50
2019-03-16T11:52:59.170Z,69.70
2019-03-16T11:55:30.960Z,70.50
2019-03-16T11:57:59.418Z,70.10
2019-03-16T12:00:28.297Z,69.50
2019-03-16T12:02:56.840Z,69.20
2019-03-16T12:05:26.025Z,68.60
2019-03-16T12:07:57.354Z,68.00
2019-03-16T12:10:25.892Z,67.00
2019-03-16T12:12:54.772Z,68.40
2019-03-16T12:15:24.097Z,67.90
2019-03-16T12:17:52.570Z,67.20
2019-03-16T12:20:21.112Z,67.50
2019-03-16T12:22:49.645Z,67.40
2019-03-16T12:25:18.248Z,67.20
2019-03-16T12:27:46.984Z,67.10
2019-03-16T12:30:18.179Z,67.80
2019-03-16T12:32:46.511Z,67.80
2019-03-16T12:35:15.039Z,68.00
2019-03-16T12:37:45.583Z,68.80
2019-03-16T12:40:18.324Z,68.80
2019-03-16T12:42:49.103Z,68.70
2019-03-16T12:45:21.183Z,68.90
2019-03-16T12:47:49.754Z,68.40
2019-03-16T12:50:18.374Z,67.70
2019-03-16T12:52:46.892Z,68.30
2019-03-16T12:55:16.963Z,67.80
2019-03-16T12:57:48.103Z,67.20
2019-03-16T13:00:20.661Z,67.30
2019-03-16T13:02:49.860Z,67.80
2019-03-16T13:05:21.670Z,67.10
2019-03-16T13:07:51.151Z,67.90
2019-03-16T13:10:24.407Z,67.80
2019-03-16T13:12:53.642Z,68.20
2019-03-16T13:15:23.753Z,67.90
2019-03-16T13:17:52.681Z,68.40
2019-03-16T13:20:23.512Z,68.70
2019-03-16T13:23:11.881Z,69.00
2019-03-16T13:25:45.419Z,69.80
2019-03-16T13:28:14.697Z,69.00
2019-03-16T13:30:45.045Z,69.50
2019-03-16T13:33:16.679Z,69.30
2019-03-16T13:35:45.133Z,69.30
2019-03-16T13:38:15.659Z,69.00
2019-03-16T13:40:44.233Z,68.80
2019-03-16T13:43:14.435Z,68.50
2019-03-16T13:45:44.435Z,68.40
2019-03-16T13:48:14.140Z,68.30
2019-03-16T13:50:42.613Z,68.50
2019-03-16T13:53:15.315Z,68.10
2019-03-16T13:55:47.227Z,67.90
2019-03-16T13:58:17.313Z,67.50
2019-03-16T14:00:50.661Z,67.90
2019-03-16T14:03:18.901Z,67.90
2019-03-16T14:05:47.390Z,67.10
2019-03-16T14:08:17.426Z,66.00
2019-03-16T14:10:45.898Z,66.70
2019-03-16T14:13:16.420Z,66.10
2019-03-16T14:15:46.498Z,66.10
2019-03-16T14:18:16.480Z,66.30
2019-03-16T14:20:44.961Z,66.70
2019-03-16T14:23:15.812Z,66.60
2019-03-16T14:25:47.593Z,66.70
2019-03-16T14:28:17.560Z,66.40
2019-03-16T14:30:47.623Z,66.30
2019-03-16T14:33:16.154Z,66.40
2019-03-16T14:35:48.414Z,66.10
2019-03-16T14:38:16.927Z,66.30
2019-03-16T14:40:45.455Z,66.20
2019-03-16T14:43:13.925Z,66.20
2019-03-16T14:45:43.927Z,66.70
2019-03-16T14:48:14.160Z,66.30
2019-03-16T14:50:42.708Z,65.80
2019-03-16T14:53:11.522Z,65.80
2019-03-16T14:55:44.451Z,65.80
2019-03-16T14:58:14.935Z,65.80
2019-03-16T15:00:48.849Z,65.70
2019-03-16T15:03:17.303Z,65.30
2019-03-16T15:05:50.788Z,65.50
2019-03-16T15:08:19.928Z,65.60
2019-03-16T15:10:50.944Z,65.70
2019-03-16T15:13:19.407Z,65.70
2019-03-16T15:15:48.012Z,65.50
2019-03-16T15:18:18.312Z,65.50
2019-03-16T15:20:47.066Z,65.90
2019-03-16T15:23:15.540Z,65.70
2019-03-16T15:25:43.995Z,65.60
2019-03-16T15:28:12.462Z,65.40
2019-03-16T15:30:50.183Z,65.20
2019-03-16T15:33:11.138Z,64.70
2019-03-16T15:35:40.286Z,64.00
2019-03-16T15:38:08.748Z,64.10
2019-03-16T15:40:38.427Z,64.20
2019-03-16T15:43:07.799Z,63.70
2019-03-16T15:45:46.814Z,63.80
2019-03-16T15:48:14.674Z,63.50
2019-03-16T15:50:45.355Z,62.40
2019-03-16T15:53:16.767Z,62.80
2019-03-16T15:55:45.205Z,62.90
2019-03-16T15:58:14.575Z,63.10
2019-03-16T16:00:43.036Z,63.20
2019-03-16T16:03:11.576Z,63.90
2019-03-16T16:05:45.872Z,64.30
2019-03-16T16:08:11.999Z,65.10
2019-03-16T16:10:43.377Z,64.40
2019-03-16T16:13:18.135Z,64.50
2019-03-16T16:15:51.506Z,64.40
2019-03-16T16:18:22.885Z,64.50
2019-03-16T16:20:51.363Z,64.40
2019-03-16T16:23:20.902Z,64.10
2019-03-16T16:25:49.481Z,64.00
2019-03-16T16:28:17.947Z,63.80
2019-03-16T16:30:48.568Z,62.70
2019-03-16T16:33:20.954Z,63.00
2019-03-16T16:35:49.446Z,63.00
2019-03-16T16:38:17.976Z,63.30
2019-03-16T16:40:46.532Z,63.00
2019-03-16T16:43:15.000Z,62.60
2019-03-16T16:45:46.648Z,62.20
2019-03-16T16:48:19.201Z,61.80
2019-03-16T16:50:50.417Z,62.60
2019-03-16T16:53:18.924Z,61.20
2019-03-16T16:55:49.162Z,61.30
2019-03-16T16:58:17.638Z,61.20
2019-03-16T17:00:46.763Z,61.30
2019-03-16T17:03:15.335Z,60.50
2019-03-16T17:05:43.884Z,60.80
2019-03-16T17:08:12.427Z,61.20
2019-03-16T17:10:41.088Z,61.10
2019-03-16T17:13:12.157Z,60.90
2019-03-16T17:15:43.742Z,61.00
2019-03-16T17:18:16.075Z,60.80
2019-03-16T17:20:44.523Z,60.70
2019-03-16T17:23:12.982Z,61.40
2019-03-16T17:25:41.511Z,60.50
2019-03-16T17:28:09.988Z,59.90
2019-03-16T17:30:40.160Z,60.60
2019-03-16T17:33:08.743Z,60.10
2019-03-16T17:35:37.368Z,59.60
2019-03-16T17:38:05.893Z,60.10
2019-03-16T17:40:34.440Z,59.80
2019-03-16T17:43:03.000Z,59.80
2019-03-16T17:45:33.879Z,59.50
2019-03-16T17:48:03.586Z,59.50
2019-03-16T17:50:35.985Z,59.20
2019-03-16T17:53:04.968Z,59.40
2019-03-16T17:55:33.619Z,59.40
2019-03-16T17:58:03.417Z,59.20
2019-03-16T18:00:31.923Z,59.00
2019-03-16T18:03:01.368Z,59.10
2019-03-16T18:05:30.059Z,59.00
2019-03-16T18:07:59.597Z,59.00
2019-03-16T18:10:29.548Z,59.10
2019-03-16T18:12:58.485Z,59.50
2019-03-16T18:15:27.104Z,59.80
2019-03-16T18:17:57.104Z,59.80
2019-03-16T18:20:25.685Z,59.90
2019-03-16T18:22:58.788Z,60.10
2019-03-16T18:25:27.352Z,60.60
2019-03-16T18:27:55.986Z,60.60
2019-03-16T18:30:25.488Z,60.90
2019-03-16T18:32:53.952Z,61.10
2019-03-16T18:35:22.471Z,61.40
2019-03-16T18:37:50.953Z,61.70
2019-03-16T18:40:19.419Z,62.00
2019-03-16T18:42:47.988Z,62.30
2019-03-16T18:45:25.390Z,62.60
2019-03-16T18:47:53.911Z,62.90
2019-03-16T18:50:23.786Z,63.20
2019-03-16T18:52:52.330Z,63.40
2019-03-16T18:55:20.794Z,63.60
2019-03-16T18:57:50.702Z,64.10
2019-03-16T19:00:19.302Z,64.20
2019-03-16T19:02:50.807Z,64.60
2019-03-16T19:05:19.607Z,64.90
2019-03-16T19:07:48.113Z,65.20
2019-03-16T19:10:17.753Z,65.40
2019-03-16T19:12:46.355Z,65.60
2019-03-16T19:15:19.138Z,65.80
2019-03-16T19:17:58.551Z,66.20
2019-03-16T19:20:19.196Z,66.40
2019-03-16T19:22:47.755Z,66.40
2019-03-16T19:25:21.115Z,66.60
2019-03-16T19:27:49.694Z,66.70
2019-03-16T19:30:18.517Z,66.70
2019-03-16T19:32:47.139Z,66.90
2019-03-16T19:35:15.924Z,67.10
2019-03-16T19:37:45.307Z,67.80
2019-03-16T19:40:16.695Z,67.20
2019-03-16T19:42:46.703Z,67.50
2019-03-16T19:45:15.565Z,67.30
2019-03-16T19:47:44.025Z,67.40
2019-03-16T19:50:16.544Z,67.40
2019-03-16T19:52:44.991Z,67.40
2019-03-16T19:55:15.131Z,67.40
2019-03-16T19:57:43.713Z,67.50
2019-03-16T20:00:17.198Z,67.60
2019-03-16T20:02:51.005Z,67.60
2019-03-16T20:05:16.065Z,67.80
2019-03-16T20:07:45.659Z,68.60
2019-03-16T20:10:19.359Z,67.80
2019-03-16T20:12:48.010Z,67.90
2019-03-16T20:15:17.100Z,67.90
2019-03-16T20:17:45.623Z,68.00
2019-03-16T20:20:15.244Z,67.90
2019-03-16T20:22:43.758Z,67.90
2019-03-16T20:25:13.059Z,67.90
2019-03-16T20:27:41.583Z,67.80
2019-03-16T20:30:15.187Z,67.80
2019-03-16T20:32:50.291Z,67.70
2019-03-16T20:35:15.287Z,67.60
2019-03-16T20:37:47.260Z,67.70
2019-03-16T20:40:16.677Z,67.80
2019-03-16T20:42:45.245Z,67.80
2019-03-16T20:45:16.861Z,67.80
2019-03-16T20:47:45.591Z,67.80
2019-03-16T20:50:18.554Z,67.80
2019-03-16T20:52:47.247Z,67.80
2019-03-16T20:55:15.867Z,67.70
2019-03-16T20:57:44.354Z,67.60
2019-03-16T21:00:15.971Z,67.40
2019-03-16T21:02:46.532Z,67.30
2019-03-16T21:05:16.796Z,67.30
2019-03-16T21:07:45.397Z,67.30
2019-03-16T21:10:14.291Z,67.20
2019-03-16T21:12:42.834Z,67.20
2019-03-16T21:15:12.984Z,67.20
2019-03-16T21:17:44.972Z,67.30
2019-03-16T21:20:16.519Z,67.10
2019-03-16T21:22:45.082Z,67.90
2019-03-16T21:25:17.375Z,67.30
2019-03-16T21:27:45.907Z,66.80
2019-03-16T21:30:17.231Z,66.90
2019-03-16T21:32:45.839Z,66.90
2019-03-16T21:35:14.438Z,66.90
2019-03-16T21:37:43.532Z,66.90
2019-03-16T21:40:18.598Z,66.90
2019-03-16T21:42:47.127Z,67.00
2019-03-16T21:45:24.208Z,66.80
2019-03-16T21:47:59.922Z,66.70
2019-03-16T21:50:24.540Z,66.70
2019-03-16T21:52:53.045Z,66.70
2019-03-16T21:55:21.511Z,66.50
2019-03-16T21:57:51.099Z,66.40
2019-03-16T22:00:19.757Z,66.20
2019-03-16T22:02:48.277Z,66.00
2019-03-16T22:05:18.266Z,66.70
2019-03-16T22:07:46.753Z,65.80
2019-03-16T22:10:16.662Z,65.90
2019-03-16T22:12:45.174Z,65.90
2019-03-16T22:15:16.750Z,65.90
2019-03-16T22:17:45.547Z,66.10
2019-03-16T22:20:18.222Z,66.10
2019-03-16T22:22:46.766Z,66.00
2019-03-16T22:25:15.356Z,66.30
2019-03-16T22:27:44.587Z,66.10
2019-03-16T22:30:19.661Z,66.30
2019-03-16T22:32:49.314Z,66.50
2019-03-16T22:35:17.892Z,66.60
2019-03-16T22:37:47.613Z,67.50
2019-03-16T22:40:17.431Z,66.30
2019-03-16T22:42:45.903Z,66.10
2019-03-16T22:45:15.227Z,66.10
2019-03-16T22:47:43.680Z,66.10
2019-03-16T22:50:19.564Z,65.80
2019-03-16T22:52:48.140Z,65.70
2019-03-16T22:55:16.668Z,65.70
2019-03-16T22:57:45.129Z,65.70
2019-03-16T23:00:20.033Z,65.40
2019-03-16T23:02:48.562Z,66.40
2019-03-16T23:05:17.095Z,65.60
2019-03-16T23:07:45.575Z,65.50
2019-03-16T23:10:14.181Z,65.50
2019-03-16T23:12:44.346Z,65.50
2019-03-16T23:15:14.964Z,65.40
2019-03-16T23:17:43.523Z,65.50
2019-03-16T23:20:12.160Z,65.60
2019-03-16T23:22:40.645Z,65.60
2019-03-16T23:25:10.734Z,65.70
2019-03-16T23:27:39.276Z,65.70
2019-03-16T23:30:09.396Z,65.70
2019-03-16T23:32:37.860Z,65.70
2019-03-16T23:35:08.244Z,65.70
2019-03-16T23:37:40.741Z,65.40
2019-03-16T23:40:12.970Z,65.20
2019-03-16T23:42:41.435Z,65.10
2019-03-16T23:45:12.276Z,65.10
2019-03-16T23:47:42.521Z,64.90
2019-03-16T23:50:13.154Z,64.80
2019-03-16T23:52:41.675Z,64.70
2019-03-16T23:55:11.284Z,64.60
2019-03-16T23:57:39.757Z,64.60
